createdAt,value
2018-12-22T00:01:07.268Z,8.84
2018-12-22T00:02:15.274Z,8.84
2018-12-22T00:03:23.342Z,8.87
2018-12-22T00:04:31.423Z,8.81
2018-12-22T00:05:39.458Z,8.83
2018-12-22T00:06:47.543Z,8.86
2018-12-22T00:07:55.569Z,8.87
2018-12-22T00:09:03.648Z,8.80
2018-12-22T00:10:11.678Z,8.83
2018-12-22T00:11:19.741Z,8.81
2018-12-22T00:12:27.815Z,8.86
2018-12-22T00:13:35.913Z,8.83
2018-12-22T00:14:43.898Z,8.87
2018-12-22T00:15:51.970Z,8.87
2018-12-22T00:17:00.027Z,8.84
2018-12-22T00:18:08.099Z,8.84
2018-12-22T00:19:16.178Z,8.83
2018-12-22T00:20:24.228Z,8.86
2018-12-22T00:21:32.268Z,8.89
2018-12-22T00:22:40.331Z,8.89
2018-12-22T00:23:48.402Z,8.86
2018-12-22T00:24:56.479Z,8.81
2018-12-22T00:26:04.506Z,8.91
2018-12-22T00:27:12.565Z,8.92
2018-12-22T00:28:22.226Z,8.94
2018-12-22T00:29:28.676Z,9.01
2018-12-22T00:30:36.789Z,8.91
2018-12-22T00:31:44.805Z,8.94
2018-12-22T00:32:52.841Z,8.92
2018-12-22T00:34:00.916Z,8.98
2018-12-22T00:35:08.968Z,9.02
2018-12-22T00:36:17.040Z,8.95
2018-12-22T00:37:25.080Z,9.04
2018-12-22T00:38:33.166Z,8.98
2018-12-22T00:39:41.212Z,8.91
2018-12-22T00:40:49.272Z,8.98
2018-12-22T00:41:57.326Z,8.96
2018-12-22T00:43:05.380Z,8.94
2018-12-22T00:44:13.441Z,8.94
2018-12-22T00:45:21.489Z,9.02
2018-12-22T00:46:29.570Z,8.95
2018-12-22T00:47:37.616Z,9.02
2018-12-22T00:48:45.659Z,8.96
2018-12-22T00:49:53.739Z,8.98
2018-12-22T00:51:01.803Z,8.96
2018-12-22T00:52:09.846Z,8.99
2018-12-22T00:53:17.901Z,8.91
2018-12-22T00:54:25.956Z,8.92
2018-12-22T00:55:34.025Z,8.98
2018-12-22T00:56:42.081Z,8.99
2018-12-22T00:57:50.124Z,8.95
2018-12-22T00:58:58.199Z,8.94
2018-12-22T01:00:06.266Z,8.96
2018-12-22T01:01:14.329Z,8.96
2018-12-22T01:02:22.362Z,9.02
2018-12-22T01:03:30.465Z,8.96
2018-12-22T01:04:38.515Z,8.99
2018-12-22T01:05:46.563Z,8.95
2018-12-22T01:06:54.613Z,8.87
2018-12-22T01:08:02.657Z,9.02
2018-12-22T01:09:10.723Z,9.01
2018-12-22T01:10:18.783Z,9.02
2018-12-22T01:11:26.843Z,9.13
2018-12-22T01:12:34.895Z,9.02
2018-12-22T01:13:42.958Z,9.11
2018-12-22T01:14:51.024Z,9.02
2018-12-22T01:15:59.094Z,9.05
2018-12-22T01:17:07.140Z,9.05
2018-12-22T01:18:15.197Z,9.11
2018-12-22T01:19:23.252Z,9.08
2018-12-22T01:20:31.347Z,9.14
2018-12-22T01:21:39.366Z,9.20
2018-12-22T01:22:47.436Z,9.18
2018-12-22T01:23:55.494Z,9.17
2018-12-22T01:25:03.561Z,9.18
2018-12-22T01:26:11.615Z,9.24
2018-12-22T01:27:19.686Z,9.21
2018-12-22T01:28:27.721Z,9.18
2018-12-22T01:29:35.795Z,9.23
2018-12-22T01:30:45.625Z,9.20
2018-12-22T01:31:52.443Z,9.21
2018-12-22T01:32:59.962Z,9.17
2018-12-22T01:34:08.013Z,9.14
2018-12-22T01:35:16.066Z,9.20
2018-12-22T01:36:24.149Z,9.14
2018-12-22T01:37:32.199Z,9.18
2018-12-22T01:38:40.280Z,9.18
2018-12-22T01:39:48.310Z,9.24
2018-12-22T01:40:56.382Z,9.23
2018-12-22T01:42:04.435Z,9.15
2018-12-22T01:43:12.483Z,9.20
2018-12-22T01:44:20.534Z,9.20
2018-12-22T01:45:28.599Z,9.29
2018-12-22T01:46:36.660Z,9.31
2018-12-22T01:47:44.722Z,9.17
2018-12-22T01:48:52.794Z,9.38
2018-12-22T01:50:00.848Z,9.29
2018-12-22T01:51:08.904Z,9.33
2018-12-22T01:52:16.968Z,9.31
2018-12-22T01:53:25.004Z,9.35
2018-12-22T01:54:33.075Z,9.32
2018-12-22T01:55:41.137Z,9.38
2018-12-22T01:56:49.195Z,9.36
2018-12-22T01:57:57.287Z,9.35
2018-12-22T01:59:05.314Z,9.29
2018-12-22T02:00:13.374Z,9.39
2018-12-22T02:01:21.461Z,9.35
2018-12-22T02:02:29.560Z,9.35
2018-12-22T02:03:37.528Z,9.28
2018-12-22T02:04:45.588Z,9.33
2018-12-22T02:05:53.674Z,9.32
2018-12-22T02:07:01.734Z,9.32
2018-12-22T02:08:09.792Z,9.33
2018-12-22T02:09:17.828Z,9.35
2018-12-22T02:10:25.893Z,9.35
2018-12-22T02:11:33.957Z,9.33
2018-12-22T02:12:42.023Z,9.38
2018-12-22T02:13:50.074Z,9.31
2018-12-22T02:14:58.123Z,9.33
2018-12-22T02:16:06.186Z,9.31
2018-12-22T02:17:14.257Z,9.33
2018-12-22T02:18:22.307Z,9.36
2018-12-22T02:19:30.362Z,9.32
2018-12-22T02:20:38.430Z,9.33
2018-12-22T02:21:46.501Z,9.40
2018-12-22T02:22:54.546Z,9.35
2018-12-22T02:24:02.618Z,9.38
2018-12-22T02:25:10.678Z,9.35
2018-12-22T02:26:18.719Z,9.36
2018-12-22T02:27:26.756Z,9.36
2018-12-22T02:28:34.853Z,9.36
2018-12-22T02:29:42.881Z,9.31
2018-12-22T02:30:50.963Z,9.35
2018-12-22T02:31:59.009Z,9.33
2018-12-22T02:33:07.066Z,9.38
2018-12-22T02:34:15.127Z,9.36
2018-12-22T02:35:23.187Z,9.36
2018-12-22T02:36:31.265Z,9.31
2018-12-22T02:37:39.326Z,9.33
2018-12-22T02:38:47.370Z,9.38
2018-12-22T02:39:55.420Z,9.36
2018-12-22T02:41:03.492Z,9.32
2018-12-22T02:42:11.547Z,9.33
2018-12-22T02:43:19.606Z,9.33
2018-12-22T02:44:27.684Z,9.36
2018-12-22T02:45:35.705Z,9.31
2018-12-22T02:46:43.771Z,9.32
2018-12-22T02:47:51.838Z,9.38
2018-12-22T02:48:59.905Z,9.36
2018-12-22T02:50:07.962Z,9.35
2018-12-22T02:51:16.030Z,9.33
2018-12-22T02:52:24.076Z,9.31
2018-12-22T02:53:32.114Z,9.36
2018-12-22T02:54:40.198Z,9.36
2018-12-22T02:55:48.250Z,9.33
2018-12-22T02:56:56.306Z,9.33
2018-12-22T02:58:04.359Z,9.32
2018-12-22T02:59:12.424Z,9.40
2018-12-22T03:00:20.488Z,9.35
2018-12-22T03:01:28.543Z,9.42
2018-12-22T03:02:36.594Z,9.39
2018-12-22T03:03:44.653Z,9.35
2018-12-22T03:04:52.724Z,9.40
2018-12-22T03:06:00.772Z,9.48
2018-12-22T03:07:08.826Z,9.40
2018-12-22T03:08:16.902Z,9.46
2018-12-22T03:09:24.944Z,9.46
2018-12-22T03:10:33.005Z,9.46
2018-12-22T03:11:41.077Z,9.47
2018-12-22T03:12:49.125Z,9.38
2018-12-22T03:13:57.201Z,9.48
2018-12-22T03:15:05.240Z,9.46
2018-12-22T03:16:13.304Z,9.48
2018-12-22T03:17:21.368Z,9.40
2018-12-22T03:18:29.418Z,9.51
2018-12-22T03:19:37.495Z,9.46
2018-12-22T03:20:45.513Z,9.46
2018-12-22T03:21:53.591Z,9.40
2018-12-22T03:23:01.687Z,9.48
2018-12-22T03:24:09.728Z,9.43
2018-12-22T03:25:17.782Z,9.40
2018-12-22T03:26:25.836Z,9.51
2018-12-22T03:27:33.888Z,9.51
2018-12-22T03:28:41.954Z,9.48
2018-12-22T03:29:50.036Z,9.46
2018-12-22T03:30:58.068Z,9.46
2018-12-22T03:32:06.139Z,9.42
2018-12-22T03:33:14.182Z,9.48
2018-12-22T03:34:22.261Z,9.46
2018-12-22T03:35:30.323Z,9.48
2018-12-22T03:36:38.360Z,9.47
2018-12-22T03:37:46.418Z,9.46
2018-12-22T03:38:54.518Z,9.40
2018-12-22T03:40:02.544Z,9.35
2018-12-22T03:41:10.594Z,9.39
2018-12-22T03:42:18.655Z,9.33
2018-12-22T03:43:26.727Z,9.33
2018-12-22T03:44:34.771Z,9.33
2018-12-22T03:45:42.846Z,9.18
2018-12-22T03:46:50.889Z,9.20
2018-12-22T03:47:58.952Z,9.26
2018-12-22T03:49:06.984Z,9.24
2018-12-22T03:50:15.045Z,9.21
2018-12-22T03:51:23.131Z,9.23
2018-12-22T03:52:31.202Z,9.20
2018-12-22T03:53:39.226Z,9.20
2018-12-22T03:54:47.325Z,9.23
2018-12-22T03:55:55.360Z,9.24
2018-12-22T03:57:03.441Z,9.18
2018-12-22T03:58:11.477Z,9.23
2018-12-22T03:59:24.651Z,9.17
2018-12-22T04:00:27.603Z,9.29
2018-12-22T04:01:35.646Z,9.24
2018-12-22T04:02:43.719Z,9.31
2018-12-22T04:03:51.765Z,9.35
2018-12-22T04:04:59.818Z,9.33
2018-12-22T04:06:07.909Z,9.31
2018-12-22T04:07:15.944Z,9.38
2018-12-22T04:08:24.014Z,9.35
2018-12-22T04:09:32.049Z,9.33
2018-12-22T04:10:40.126Z,9.36
2018-12-22T04:11:48.172Z,9.33
2018-12-22T04:12:56.215Z,9.32
2018-12-22T04:14:04.284Z,9.35
2018-12-22T04:15:12.372Z,9.35
2018-12-22T04:16:20.424Z,9.32
2018-12-22T04:17:28.561Z,9.32
2018-12-22T04:18:36.526Z,9.32
2018-12-22T04:19:44.604Z,9.32
2018-12-22T04:20:52.647Z,9.36
2018-12-22T04:22:00.786Z,9.35
2018-12-22T04:23:08.798Z,9.35
2018-12-22T04:24:16.847Z,9.31
2018-12-22T04:25:24.994Z,9.36
2018-12-22T04:26:32.936Z,9.36
2018-12-22T04:27:41.013Z,9.29
2018-12-22T04:28:49.088Z,9.31
2018-12-22T04:29:57.124Z,9.35
2018-12-22T04:31:05.163Z,9.38
2018-12-22T04:32:13.943Z,9.36
2018-12-22T04:33:21.339Z,9.32
2018-12-22T04:34:29.373Z,9.43
2018-12-22T04:35:37.433Z,9.40
2018-12-22T04:36:45.453Z,9.51
2018-12-22T04:37:53.540Z,9.42
2018-12-22T04:39:01.590Z,9.46
2018-12-22T04:40:09.663Z,9.53
2018-12-22T04:41:17.714Z,9.46
2018-12-22T04:42:25.757Z,9.53
2018-12-22T04:43:33.822Z,9.53
2018-12-22T04:44:41.872Z,9.48
2018-12-22T04:45:49.934Z,9.48
2018-12-22T04:46:58.022Z,9.53
2018-12-22T04:48:06.037Z,9.56
2018-12-22T04:49:14.150Z,9.46
2018-12-22T04:50:22.168Z,9.51
2018-12-22T04:51:30.228Z,9.46
2018-12-22T04:52:38.286Z,9.48
2018-12-22T04:53:46.351Z,9.48
2018-12-22T04:54:54.414Z,9.50
2018-12-22T04:56:02.451Z,9.43
2018-12-22T04:57:10.545Z,9.46
2018-12-22T04:58:18.587Z,9.48
2018-12-22T04:59:26.674Z,9.47
2018-12-22T05:00:34.689Z,9.48
2018-12-22T05:01:42.757Z,9.43
2018-12-22T05:02:50.825Z,9.43
2018-12-22T05:03:58.881Z,9.35
2018-12-22T05:05:06.930Z,9.33
2018-12-22T05:06:15.019Z,9.39
2018-12-22T05:07:23.063Z,9.36
2018-12-22T05:08:31.102Z,9.32
2018-12-22T05:09:39.192Z,9.36
2018-12-22T05:10:47.214Z,9.38
2018-12-22T05:11:55.301Z,9.42
2018-12-22T05:13:03.343Z,9.46
2018-12-22T05:14:11.415Z,9.46
2018-12-22T05:15:19.465Z,9.53
2018-12-22T05:16:27.531Z,9.47
2018-12-22T05:17:35.576Z,9.48
2018-12-22T05:18:43.676Z,9.51
2018-12-22T05:19:51.725Z,9.51
2018-12-22T05:20:59.746Z,9.50
2018-12-22T05:22:08.541Z,9.46
2018-12-22T05:23:15.869Z,9.48
2018-12-22T05:24:23.932Z,9.47
2018-12-22T05:25:32.014Z,9.47
2018-12-22T05:26:40.045Z,9.47
2018-12-22T05:27:48.113Z,9.50
2018-12-22T05:28:56.178Z,9.48
2018-12-22T05:30:04.243Z,9.51
2018-12-22T05:31:12.272Z,9.47
2018-12-22T05:32:20.366Z,9.46
2018-12-22T05:33:28.425Z,9.48
2018-12-22T05:34:36.472Z,9.47
2018-12-22T05:35:44.540Z,9.51
2018-12-22T05:36:52.568Z,9.48
2018-12-22T05:38:00.679Z,9.47
2018-12-22T05:39:08.727Z,9.47
2018-12-22T05:40:16.740Z,9.48
2018-12-22T05:41:24.826Z,9.46
2018-12-22T05:42:32.874Z,9.42
2018-12-22T05:43:41.031Z,9.36
2018-12-22T05:44:49.003Z,9.36
2018-12-22T05:45:57.040Z,9.31
2018-12-22T05:47:05.096Z,9.36
2018-12-22T05:48:13.181Z,9.31
2018-12-22T05:49:21.208Z,9.23
2018-12-22T05:50:29.271Z,9.23
2018-12-22T05:51:37.344Z,9.17
2018-12-22T05:52:45.407Z,9.20
2018-12-22T05:53:53.467Z,9.14
2018-12-22T05:55:01.732Z,9.17
2018-12-22T05:56:09.576Z,9.14
2018-12-22T05:57:17.902Z,9.02
2018-12-22T05:58:25.686Z,8.99
2018-12-22T05:59:33.747Z,9.08
2018-12-22T06:00:41.823Z,9.04
2018-12-22T06:01:49.889Z,9.02
2018-12-22T06:02:57.915Z,8.98
2018-12-22T06:04:05.978Z,8.92
2018-12-22T06:05:14.062Z,8.91
2018-12-22T06:06:22.101Z,8.84
2018-12-22T06:07:30.168Z,8.99
2018-12-22T06:08:38.373Z,8.92
2018-12-22T06:09:46.270Z,8.99
2018-12-22T06:10:54.323Z,8.91
2018-12-22T06:12:02.423Z,8.87
2018-12-22T06:13:10.465Z,8.81
2018-12-22T06:14:18.526Z,8.91
2018-12-22T06:15:26.653Z,8.96
2018-12-22T06:16:34.637Z,8.84
2018-12-22T06:17:42.693Z,8.86
2018-12-22T06:18:50.760Z,8.81
2018-12-22T06:19:58.822Z,8.94
2018-12-22T06:21:06.869Z,8.95
2018-12-22T06:22:14.922Z,8.92
2018-12-22T06:23:23.014Z,8.94
2018-12-22T06:24:31.035Z,8.95
2018-12-22T06:25:39.075Z,8.95
2018-12-22T06:26:47.172Z,8.94
2018-12-22T06:27:55.205Z,8.95
2018-12-22T06:29:03.896Z,8.94
2018-12-22T06:30:11.367Z,8.96
2018-12-22T06:31:19.399Z,8.92
2018-12-22T06:32:27.496Z,8.94
2018-12-22T06:33:35.534Z,8.91
2018-12-22T06:34:43.567Z,8.91
2018-12-22T06:35:51.637Z,8.91
2018-12-22T06:36:59.705Z,8.94
2018-12-22T06:38:07.732Z,8.98
2018-12-22T06:39:15.808Z,8.92
2018-12-22T06:40:24.120Z,8.92
2018-12-22T06:41:31.920Z,8.91
2018-12-22T06:42:39.976Z,8.94
2018-12-22T06:43:48.048Z,8.91
2018-12-22T06:44:56.086Z,8.98
2018-12-22T06:46:04.811Z,8.95
2018-12-22T06:47:12.752Z,8.98
2018-12-22T06:48:20.888Z,8.86
2018-12-22T06:49:29.012Z,8.91
2018-12-22T06:50:36.946Z,8.92
2018-12-22T06:51:44.948Z,8.98
2018-12-22T06:52:53.051Z,8.95
2018-12-22T06:54:01.181Z,8.98
2018-12-22T06:55:09.299Z,8.91
2018-12-22T06:56:17.323Z,8.94
2018-12-22T06:57:25.153Z,8.89
2018-12-22T06:58:32.824Z,8.96
2018-12-22T06:59:41.158Z,8.94
2018-12-22T07:00:48.928Z,8.84
2018-12-22T07:01:56.972Z,8.89
2018-12-22T07:03:05.034Z,8.92
2018-12-22T07:04:13.112Z,8.89
2018-12-22T07:05:21.139Z,8.87
2018-12-22T07:06:29.827Z,8.86
2018-12-22T07:07:37.819Z,8.91
2018-12-22T07:08:45.984Z,8.80
2018-12-22T07:09:54.360Z,8.84
2018-12-22T07:11:02.047Z,8.83
2018-12-22T07:12:10.097Z,8.81
2018-12-22T07:13:17.589Z,8.76
2018-12-22T07:14:25.693Z,8.68
2018-12-22T07:15:33.662Z,8.76
2018-12-22T07:16:41.719Z,8.62
2018-12-22T07:17:49.786Z,8.63
2018-12-22T07:18:57.860Z,8.65
2018-12-22T07:20:05.921Z,8.66
2018-12-22T07:21:13.959Z,8.56
2018-12-22T07:22:23.393Z,8.63
2018-12-22T07:23:30.073Z,8.59
2018-12-22T07:24:38.127Z,8.59
2018-12-22T07:26:54.261Z,8.59
2018-12-22T07:28:02.409Z,8.62
2018-12-22T07:29:10.384Z,8.59
2018-12-22T07:30:25.861Z,8.63
2018-12-22T07:31:27.180Z,8.63
2018-12-22T07:34:50.631Z,8.80
2018-12-22T07:35:58.817Z,8.76
2018-12-22T07:37:06.816Z,8.70
2018-12-22T07:38:14.845Z,8.62
2018-12-22T07:39:22.902Z,8.68
2018-12-22T07:42:12.392Z,8.68
